createdAt,value
2022-12-20T00:00:50.912Z,21.30
2022-12-20T00:03:17.596Z,25.33
2022-12-20T00:05:43.979Z,25.37
2022-12-20T00:08:10.431Z,22.60
2022-12-20T00:10:37.321Z,25.53
2022-12-20T00:13:03.571Z,24.40
2022-12-20T00:15:31.298Z,26.13
2022-12-20T00:17:57.908Z,27.20
2022-12-20T00:20:24.256Z,24.53
2022-12-20T00:22:50.518Z,26.83
2022-12-20T00:25:16.779Z,25.70
2022-12-20T00:27:42.991Z,21.10
2022-12-20T00:30:09.457Z,21.63
2022-12-20T00:32:35.696Z,23.07
2022-12-20T00:35:01.920Z,23.50
2022-12-20T00:37:28.158Z,22.07
2022-12-20T00:39:54.428Z,22.63
2022-12-20T00:42:20.688Z,24.23
2022-12-20T00:44:46.892Z,24.40
2022-12-20T00:47:13.162Z,21.47
2022-12-20T00:49:39.379Z,25.17
2022-12-20T00:52:05.610Z,22.90
2022-12-20T00:54:31.820Z,22.67
2022-12-20T00:56:58.048Z,24.17
2022-12-20T00:59:29.470Z,25.40
2022-12-20T01:01:55.809Z,21.53
2022-12-20T01:04:22.188Z,21.90
2022-12-20T01:06:48.406Z,23.37
2022-12-20T01:09:14.648Z,23.95
2022-12-20T01:11:40.894Z,23.53
2022-12-20T01:14:14.505Z,25.97
2022-12-20T01:16:42.294Z,21.90
2022-12-20T01:19:10.378Z,23.47
2022-12-20T01:21:37.039Z,21.13
2022-12-20T01:24:03.455Z,24.30
2022-12-20T01:26:30.283Z,21.93
2022-12-20T01:28:58.349Z,21.03
2022-12-20T01:31:24.960Z,22.80
2022-12-20T01:33:52.942Z,21.53
2022-12-20T01:36:25.268Z,19.73
2022-12-20T01:38:55.187Z,22.30
2022-12-20T01:41:22.326Z,21.93
2022-12-20T01:43:50.642Z,19.77
2022-12-20T01:46:17.390Z,22.93
2022-12-20T01:48:45.983Z,23.07
2022-12-20T01:51:12.247Z,23.17
2022-12-20T01:53:38.684Z,21.70
2022-12-20T01:56:06.655Z,20.50
2022-12-20T01:58:34.004Z,21.37
2022-12-20T02:01:00.276Z,20.27
2022-12-20T02:03:27.240Z,23.03
2022-12-20T02:05:53.533Z,19.47
2022-12-20T02:08:20.222Z,21.47
2022-12-20T02:11:05.423Z,20.60
2022-12-20T02:13:42.086Z,18.67
2022-12-20T02:16:08.799Z,21.20
2022-12-20T02:18:55.277Z,22.00
2022-12-20T02:21:31.324Z,21.77
2022-12-20T02:24:03.723Z,23.30
2022-12-20T02:26:48.868Z,18.60
2022-12-20T02:29:20.827Z,20.93
2022-12-20T02:31:52.918Z,20.93
2022-12-20T02:34:21.561Z,21.73
2022-12-20T02:36:47.778Z,19.23
2022-12-20T02:39:16.345Z,20.40
2022-12-20T02:41:45.038Z,22.83
2022-12-20T02:44:32.413Z,22.17
2022-12-20T02:47:00.708Z,18.90
2022-12-20T02:49:30.784Z,20.53
2022-12-20T02:51:57.299Z,19.33
2022-12-20T02:54:24.106Z,24.20
2022-12-20T02:56:54.590Z,21.23
2022-12-20T02:59:25.478Z,19.00
2022-12-20T03:01:53.227Z,18.77
2022-12-20T03:04:21.153Z,20.23
2022-12-20T03:06:56.973Z,23.40
2022-12-20T03:09:23.233Z,23.20
2022-12-20T03:11:49.443Z,20.47
2022-12-20T03:14:15.664Z,16.97
2022-12-20T03:16:41.966Z,20.47
2022-12-20T03:19:08.209Z,21.87
2022-12-20T03:21:34.440Z,19.53
2022-12-20T03:24:00.656Z,18.87
2022-12-20T03:26:27.049Z,19.90
2022-12-20T03:28:53.351Z,18.63
2022-12-20T03:31:19.833Z,20.03
2022-12-20T03:33:46.152Z,20.13
2022-12-20T03:36:12.415Z,18.33
2022-12-20T03:38:38.656Z,20.03
2022-12-20T03:41:04.929Z,18.67
2022-12-20T03:43:31.190Z,19.47
2022-12-20T03:45:57.433Z,19.60
2022-12-20T03:48:23.678Z,20.47
2022-12-20T03:50:49.896Z,17.60
2022-12-20T03:53:16.407Z,20.33
2022-12-20T03:55:45.349Z,17.90
2022-12-20T03:58:12.012Z,19.30
2022-12-20T04:00:38.232Z,17.60
2022-12-20T04:03:04.580Z,18.83
2022-12-20T04:05:30.947Z,18.23
2022-12-20T04:07:57.187Z,17.00
2022-12-20T04:10:23.476Z,18.07
2022-12-20T04:12:49.742Z,19.03
2022-12-20T04:15:15.975Z,18.47
2022-12-20T04:17:42.305Z,17.93
2022-12-20T04:20:21.624Z,19.30
2022-12-20T04:22:48.465Z,18.23
2022-12-20T04:25:16.120Z,17.57
2022-12-20T04:27:42.369Z,20.93
2022-12-20T04:30:09.115Z,20.87
2022-12-20T04:32:35.393Z,19.97
2022-12-20T04:35:01.645Z,19.40
2022-12-20T04:37:28.004Z,20.83
2022-12-20T04:39:55.387Z,17.27
2022-12-20T04:42:22.002Z,16.87
2022-12-20T04:44:48.344Z,16.00
2022-12-20T04:47:14.578Z,17.67
2022-12-20T04:49:40.789Z,18.83
2022-12-20T04:52:25.699Z,17.40
2022-12-20T04:54:51.908Z,17.87
2022-12-20T04:57:18.138Z,21.80
2022-12-20T04:59:44.451Z,17.70
2022-12-20T05:02:10.730Z,19.20
2022-12-20T05:04:37.874Z,17.77
2022-12-20T05:07:04.239Z,18.03
2022-12-20T05:09:30.453Z,17.73
2022-12-20T05:11:56.691Z,21.00
2022-12-20T05:14:22.949Z,16.90
2022-12-20T05:16:49.326Z,19.80
2022-12-20T05:19:15.848Z,19.50
2022-12-20T05:22:00.810Z,19.37
2022-12-20T05:24:45.918Z,18.23
2022-12-20T05:27:12.162Z,19.33
2022-12-20T05:29:38.458Z,19.83
2022-12-20T05:32:04.708Z,18.20
2022-12-20T05:34:31.075Z,20.20
2022-12-20T05:36:57.306Z,20.27
2022-12-20T05:39:23.582Z,18.97
2022-12-20T05:41:50.248Z,21.30
2022-12-20T05:44:17.359Z,17.67
2022-12-20T05:46:43.657Z,20.43
2022-12-20T05:49:09.927Z,16.90
2022-12-20T05:51:36.739Z,19.50
2022-12-20T05:54:03.021Z,20.63
2022-12-20T05:56:29.284Z,20.50
2022-12-20T05:58:55.619Z,21.40
2022-12-20T06:01:21.946Z,18.77
2022-12-20T06:03:48.389Z,22.33
2022-12-20T06:06:15.487Z,21.50
2022-12-20T06:08:41.967Z,20.10
2022-12-20T06:11:08.458Z,19.30
2022-12-20T06:13:34.956Z,17.47
2022-12-20T06:16:01.561Z,20.73
2022-12-20T06:18:27.873Z,17.53
2022-12-20T06:20:54.259Z,18.23
2022-12-20T06:23:20.483Z,20.33
2022-12-20T06:25:47.285Z,18.10
2022-12-20T06:28:13.787Z,22.37
2022-12-20T06:30:40.007Z,20.10
2022-12-20T06:33:06.297Z,23.27
2022-12-20T06:35:32.529Z,18.73
2022-12-20T06:37:58.805Z,17.70
2022-12-20T06:40:25.110Z,21.93
2022-12-20T06:42:51.363Z,20.57
2022-12-20T06:45:17.633Z,19.83
2022-12-20T06:47:43.846Z,20.23
2022-12-20T06:50:10.211Z,19.23
2022-12-20T06:52:36.524Z,20.60
2022-12-20T06:55:03.251Z,19.90
2022-12-20T06:57:29.486Z,21.83
2022-12-20T06:59:55.718Z,19.17
2022-12-20T07:02:22.094Z,19.70
2022-12-20T07:04:49.747Z,19.97
2022-12-20T07:07:17.151Z,20.57
2022-12-20T07:09:43.445Z,21.90
2022-12-20T07:12:09.781Z,19.97
2022-12-20T07:14:36.604Z,18.40
2022-12-20T07:17:03.934Z,21.83
2022-12-20T07:19:30.267Z,20.23
2022-12-20T07:21:56.508Z,22.33
2022-12-20T07:24:22.810Z,18.43
2022-12-20T07:26:49.025Z,18.23
2022-12-20T07:29:16.340Z,21.17
2022-12-20T07:31:42.745Z,18.53
2022-12-20T07:34:10.360Z,22.47
2022-12-20T07:36:36.598Z,21.93
2022-12-20T07:39:03.327Z,19.77
2022-12-20T07:41:29.606Z,21.03
2022-12-20T07:43:58.907Z,18.53
2022-12-20T07:46:25.696Z,22.83
2022-12-20T07:48:52.289Z,23.47
2022-12-20T07:51:23.632Z,22.40
2022-12-20T07:53:54.385Z,23.83
2022-12-20T07:56:21.015Z,22.57
2022-12-20T07:58:49.418Z,19.63
2022-12-20T08:01:15.717Z,22.07
2022-12-20T08:03:44.315Z,20.87
2022-12-20T08:06:10.886Z,23.17
2022-12-20T08:08:40.647Z,21.33
2022-12-20T08:11:08.344Z,22.17
2022-12-20T08:13:38.131Z,23.03
2022-12-20T08:16:07.429Z,20.97
2022-12-20T08:18:33.662Z,19.07
2022-12-20T08:21:01.056Z,19.73
2022-12-20T08:23:27.392Z,21.23
2022-12-20T08:25:53.647Z,22.30
2022-12-20T08:28:20.403Z,23.77
2022-12-20T08:30:46.776Z,18.20
2022-12-20T08:33:13.132Z,20.23
2022-12-20T08:35:39.350Z,22.03
2022-12-20T08:38:05.647Z,21.67
2022-12-20T08:40:32.096Z,23.30
2022-12-20T08:42:58.680Z,19.90
2022-12-20T08:45:24.909Z,20.30
2022-12-20T08:47:51.158Z,19.77
2022-12-20T08:50:17.449Z,27.07
2022-12-20T08:52:44.638Z,20.37
2022-12-20T08:55:12.886Z,20.63
2022-12-20T08:57:39.265Z,23.40
2022-12-20T09:00:05.838Z,21.57
2022-12-20T09:02:32.350Z,21.87
2022-12-20T09:04:58.678Z,20.27
2022-12-20T09:07:24.931Z,20.93
2022-12-20T09:09:51.158Z,21.53
2022-12-20T09:12:17.404Z,22.83
2022-12-20T09:14:43.734Z,21.83
2022-12-20T09:17:09.989Z,20.30
2022-12-20T09:19:36.249Z,22.53
2022-12-20T09:22:02.507Z,21.13
2022-12-20T09:24:28.819Z,22.27
2022-12-20T09:26:55.112Z,57.70
2022-12-20T09:29:29.479Z,45.80
2022-12-20T09:31:59.931Z,128.33
2022-12-20T09:34:26.453Z,93.07
2022-12-20T09:36:52.761Z,178.20
2022-12-20T09:39:19.143Z,79.90
2022-12-20T09:41:45.422Z,382.03
2022-12-20T09:44:14.125Z,154.63
2022-12-20T09:46:41.164Z,753.57
2022-12-20T09:49:11.240Z,542.27
2022-12-20T09:51:45.132Z,485.37
2022-12-20T09:54:23.653Z,227.07
2022-12-20T09:56:49.903Z,73.17
2022-12-20T09:59:18.950Z,56.43
2022-12-20T10:01:47.303Z,76.83
2022-12-20T10:04:19.416Z,38.47
2022-12-20T10:07:04.638Z,45.30
2022-12-20T10:09:36.960Z,53.10
2022-12-20T10:12:21.479Z,35.87
2022-12-20T10:15:06.608Z,40.63
2022-12-20T10:17:56.395Z,22.77
2022-12-20T10:20:30.755Z,22.57
2022-12-20T10:23:00.487Z,21.60
2022-12-20T10:25:34.008Z,19.47
2022-12-20T10:28:10.091Z,18.67
2022-12-20T10:30:36.460Z,22.10
2022-12-20T10:33:02.783Z,28.00
2022-12-20T10:35:29.248Z,23.87
2022-12-20T10:38:09.797Z,21.63
2022-12-20T10:41:10.231Z,19.30
2022-12-20T10:43:23.901Z,17.30
2022-12-20T10:45:58.714Z,21.00
2022-12-20T10:48:32.330Z,19.27
2022-12-20T10:51:03.045Z,19.10
2022-12-20T10:53:30.521Z,21.43
2022-12-20T10:56:12.159Z,18.40
2022-12-20T10:58:38.583Z,16.57
2022-12-20T11:01:13.518Z,16.60
2022-12-20T11:04:09.507Z,18.97
2022-12-20T11:06:38.698Z,15.77
2022-12-20T11:09:18.048Z,17.23
2022-12-20T11:11:57.719Z,18.47
2022-12-20T11:14:24.030Z,17.53
2022-12-20T11:16:51.508Z,16.20
2022-12-20T11:19:31.518Z,15.83
2022-12-20T11:22:03.442Z,16.60
2022-12-20T11:24:41.706Z,17.57
2022-12-20T11:27:23.384Z,18.03
2022-12-20T11:30:02.349Z,16.97
2022-12-20T11:32:38.828Z,16.17
2022-12-20T11:35:26.832Z,17.40
2022-12-20T11:38:09.736Z,17.97
2022-12-20T11:40:44.054Z,15.03
2022-12-20T11:43:29.224Z,17.50
2022-12-20T11:46:14.347Z,17.23
2022-12-20T11:48:40.733Z,17.53
2022-12-20T11:51:45.554Z,15.87
2022-12-20T11:54:21.541Z,16.90
2022-12-20T11:56:50.381Z,16.37
2022-12-20T11:59:31.263Z,18.73
2022-12-20T12:02:12.480Z,15.23
2022-12-20T12:04:44.685Z,15.67
2022-12-20T12:07:16.915Z,15.00
2022-12-20T12:10:03.874Z,18.93
2022-12-20T12:12:38.209Z,14.83
2022-12-20T12:15:19.728Z,14.57
2022-12-20T12:17:48.396Z,16.43
2022-12-20T12:20:20.235Z,14.70
2022-12-20T12:22:48.170Z,17.83
2022-12-20T12:25:16.579Z,17.13
2022-12-20T12:27:42.993Z,17.03
2022-12-20T12:30:13.136Z,14.40
2022-12-20T12:32:44.484Z,14.90
2022-12-20T12:35:25.784Z,16.13
2022-12-20T12:38:19.912Z,16.93
2022-12-20T12:41:10.421Z,15.87
2022-12-20T12:43:43.546Z,16.27
2022-12-20T12:46:14.450Z,13.57
2022-12-20T12:48:41.162Z,15.37
2022-12-20T12:51:07.928Z,20.50
2022-12-20T12:53:36.775Z,18.03
2022-12-20T12:56:42.737Z,15.37
2022-12-20T12:59:09.454Z,15.53
2022-12-20T13:01:49.633Z,16.13
2022-12-20T13:04:22.253Z,16.93
2022-12-20T13:06:48.448Z,15.47
2022-12-20T13:09:27.139Z,14.07
2022-12-20T13:12:00.981Z,16.83
2022-12-20T13:14:27.627Z,17.00
2022-12-20T13:17:12.668Z,15.30
2022-12-20T13:19:49.024Z,18.17
2022-12-20T13:22:21.846Z,16.90
2022-12-20T13:24:55.643Z,17.53
2022-12-20T13:27:23.802Z,19.83
2022-12-20T13:29:58.435Z,17.80
2022-12-20T13:32:43.552Z,16.07
2022-12-20T13:35:25.327Z,18.80
2022-12-20T13:38:04.568Z,18.03
2022-12-20T13:40:34.910Z,16.30
2022-12-20T13:43:06.609Z,17.87
2022-12-20T13:45:33.865Z,15.83
2022-12-20T13:48:07.801Z,19.43
2022-12-20T13:50:41.574Z,15.37
2022-12-20T13:53:16.198Z,17.43
2022-12-20T13:55:45.479Z,18.47
2022-12-20T13:58:13.580Z,17.97
2022-12-20T14:00:40.276Z,19.70
2022-12-20T14:03:13.354Z,18.57
2022-12-20T14:05:39.764Z,17.63
2022-12-20T14:08:13.458Z,16.30
2022-12-20T14:10:39.992Z,18.60
2022-12-20T14:13:25.832Z,16.27
2022-12-20T14:15:52.592Z,14.13
2022-12-20T14:18:20.323Z,17.37
2022-12-20T14:21:05.451Z,16.23
2022-12-20T14:23:35.964Z,16.03
2022-12-20T14:26:02.689Z,17.27
2022-12-20T14:28:31.301Z,18.97
2022-12-20T14:30:59.058Z,18.17
2022-12-20T14:33:28.606Z,16.77
2022-12-20T14:35:54.982Z,20.47
2022-12-20T14:38:23.213Z,18.23
2022-12-20T14:40:54.016Z,18.27
2022-12-20T14:43:28.829Z,17.90
2022-12-20T14:46:14.028Z,20.40
2022-12-20T14:48:40.306Z,18.83
2022-12-20T14:51:06.589Z,16.30
2022-12-20T14:53:33.276Z,18.70
2022-12-20T14:55:59.526Z,21.47
2022-12-20T14:58:30.251Z,18.47
2022-12-20T15:00:59.382Z,19.13
2022-12-20T15:03:26.321Z,21.73
2022-12-20T15:05:54.039Z,21.20
2022-12-20T15:08:27.973Z,23.90
2022-12-20T15:11:24.117Z,22.83
2022-12-20T15:13:53.074Z,20.10
2022-12-20T15:16:20.969Z,23.23
2022-12-20T15:18:47.863Z,22.40
2022-12-20T15:21:23.263Z,22.83
2022-12-20T15:23:51.505Z,25.00
2022-12-20T15:26:18.724Z,22.43
2022-12-20T15:28:45.045Z,24.07
2022-12-20T15:31:12.018Z,29.10
2022-12-20T15:33:39.082Z,27.80
2022-12-20T15:36:05.401Z,28.87
2022-12-20T15:41:22.736Z,24.03
2022-12-20T15:43:51.186Z,24.77
2022-12-20T15:46:17.605Z,24.13
2022-12-20T15:48:43.919Z,25.10
2022-12-20T15:51:36.258Z,28.87
2022-12-20T15:54:04.367Z,26.43
2022-12-20T15:56:30.696Z,24.73
2022-12-20T15:58:57.002Z,26.77
2022-12-20T16:01:40.023Z,26.57
2022-12-20T16:04:07.890Z,27.13
2022-12-20T16:06:34.149Z,26.40
2022-12-20T16:09:00.364Z,26.77
2022-12-20T16:11:30.456Z,24.73
2022-12-20T16:13:58.498Z,27.03
2022-12-20T16:16:29.271Z,29.97
2022-12-20T16:18:55.987Z,28.37
2022-12-20T16:21:23.403Z,30.33
2022-12-20T16:23:53.012Z,27.03
2022-12-20T16:26:21.236Z,30.37
2022-12-20T16:28:48.136Z,27.80
2022-12-20T16:31:20.123Z,29.53
2022-12-20T16:33:46.358Z,27.60
2022-12-20T16:36:12.639Z,27.37
2022-12-20T16:38:38.871Z,26.77
2022-12-20T16:41:12.844Z,30.40
2022-12-20T16:43:39.278Z,29.63
2022-12-20T16:46:05.599Z,28.73
2022-12-20T16:48:31.832Z,26.30
2022-12-20T16:50:58.232Z,29.13
2022-12-20T16:53:24.492Z,25.83
2022-12-20T16:55:50.723Z,27.77
2022-12-20T16:58:16.949Z,25.37
2022-12-20T17:00:45.518Z,28.20
2022-12-20T17:03:11.861Z,27.27
2022-12-20T17:05:39.546Z,28.20
2022-12-20T17:10:51.744Z,27.77
2022-12-20T17:13:20.906Z,27.93
2022-12-20T17:15:48.929Z,29.67
2022-12-20T17:18:15.148Z,27.67
2022-12-20T17:20:41.364Z,27.80
2022-12-20T17:23:10.484Z,26.70
2022-12-20T17:25:36.853Z,28.57
2022-12-20T17:28:03.493Z,28.50
2022-12-20T17:30:29.748Z,26.63
2022-12-20T17:32:55.977Z,26.23
2022-12-20T17:35:22.302Z,27.93
2022-12-20T17:37:48.602Z,24.97
2022-12-20T17:40:15.116Z,26.83
2022-12-20T17:42:42.080Z,27.20
2022-12-20T17:45:27.348Z,29.37
2022-12-20T17:47:54.173Z,23.00
2022-12-20T17:50:20.798Z,24.83
2022-12-20T17:52:47.415Z,25.73
2022-12-20T17:55:24.487Z,25.03
2022-12-20T17:57:51.052Z,25.30
2022-12-20T18:00:19.427Z,25.20
2022-12-20T18:02:45.822Z,27.57
2022-12-20T18:05:12.936Z,28.27
2022-12-20T18:07:39.245Z,27.57
2022-12-20T18:10:06.133Z,26.67
2022-12-20T18:12:37.291Z,25.20
2022-12-20T18:15:04.112Z,27.90
2022-12-20T18:17:30.340Z,24.00
2022-12-20T18:19:56.758Z,26.33
2022-12-20T18:22:23.029Z,23.73
2022-12-20T18:24:49.311Z,24.50
2022-12-20T18:27:15.546Z,22.27
2022-12-20T18:29:41.766Z,25.40
2022-12-20T18:32:08.083Z,25.17
2022-12-20T18:34:34.404Z,26.73
2022-12-20T18:37:01.883Z,24.33
2022-12-20T18:39:28.234Z,26.10
2022-12-20T18:41:54.462Z,26.03
2022-12-20T18:44:20.676Z,25.87
2022-12-20T18:46:46.931Z,21.53
2022-12-20T18:49:13.172Z,22.37
2022-12-20T18:51:39.460Z,22.73
2022-12-20T18:54:07.818Z,25.33
2022-12-20T18:56:35.577Z,22.70
2022-12-20T18:59:10.263Z,24.63
2022-12-20T19:01:38.737Z,23.10
2022-12-20T19:04:05.678Z,25.10
2022-12-20T19:06:32.781Z,24.37
2022-12-20T19:08:59.944Z,26.37
2022-12-20T19:11:26.367Z,24.83
2022-12-20T19:13:52.633Z,24.27
2022-12-20T19:16:20.624Z,26.83
2022-12-20T19:18:47.476Z,28.77
2022-12-20T19:21:18.144Z,24.27
2022-12-20T19:23:44.990Z,22.77
2022-12-20T19:26:12.943Z,25.03
2022-12-20T19:28:40.206Z,24.47
2022-12-20T19:31:07.456Z,23.57
2022-12-20T19:33:38.489Z,23.60
2022-12-20T19:36:10.611Z,26.17
2022-12-20T19:38:37.263Z,25.17
2022-12-20T19:41:03.911Z,24.37
2022-12-20T19:43:30.183Z,24.23
2022-12-20T19:45:57.515Z,24.27
2022-12-20T19:48:23.814Z,26.13
2022-12-20T19:50:50.597Z,27.83
2022-12-20T19:53:16.825Z,27.30
2022-12-20T19:55:51.295Z,25.50
2022-12-20T19:58:17.690Z,28.10
2022-12-20T20:00:46.867Z,27.53
2022-12-20T20:03:13.594Z,26.90
2022-12-20T20:05:39.970Z,27.07
2022-12-20T20:08:06.187Z,23.70
2022-12-20T20:10:32.427Z,25.27
2022-12-20T20:12:58.983Z,24.13
2022-12-20T20:15:25.184Z,26.57
2022-12-20T20:17:51.963Z,24.07
2022-12-20T20:20:18.260Z,24.20
2022-12-20T20:22:44.499Z,26.27
2022-12-20T20:25:11.182Z,26.30
2022-12-20T20:27:37.445Z,25.50
2022-12-20T20:30:04.828Z,26.73
2022-12-20T20:32:31.846Z,25.03
2022-12-20T20:34:58.138Z,28.30
2022-12-20T20:37:24.372Z,27.17
2022-12-20T20:39:50.593Z,25.40
2022-12-20T20:42:23.247Z,31.80
2022-12-20T20:44:50.153Z,27.43
2022-12-20T20:47:16.389Z,29.23
2022-12-20T20:49:42.635Z,26.27
2022-12-20T20:52:08.918Z,26.97
2022-12-20T20:54:35.333Z,23.90
2022-12-20T20:57:01.576Z,29.73
2022-12-20T20:59:28.125Z,25.03
2022-12-20T21:01:54.913Z,27.07
2022-12-20T21:04:21.375Z,27.53
2022-12-20T21:06:47.605Z,24.57
2022-12-20T21:09:13.903Z,27.47
2022-12-20T21:11:40.251Z,25.87
2022-12-20T21:14:06.631Z,27.20
2022-12-20T21:16:34.284Z,27.67
2022-12-20T21:19:00.691Z,26.80
2022-12-20T21:21:27.095Z,26.43
2022-12-20T21:23:54.062Z,25.50
2022-12-20T21:26:21.865Z,28.80
2022-12-20T21:28:48.299Z,25.43
2022-12-20T21:31:17.219Z,26.83
2022-12-20T21:33:45.722Z,25.23
2022-12-20T21:36:13.860Z,28.13
2022-12-20T21:38:40.611Z,26.60
2022-12-20T21:41:08.110Z,26.07
2022-12-20T21:43:35.318Z,24.43
2022-12-20T21:46:01.588Z,27.77
2022-12-20T21:48:27.808Z,27.87
2022-12-20T21:50:58.316Z,25.30
2022-12-20T21:53:24.574Z,25.30
2022-12-20T21:55:53.451Z,27.77
2022-12-20T21:58:19.707Z,25.40
2022-12-20T22:00:50.910Z,26.77
2022-12-20T22:03:21.106Z,26.77
2022-12-20T22:05:47.994Z,26.07
2022-12-20T22:08:15.458Z,24.97
2022-12-20T22:10:41.896Z,23.90
2022-12-20T22:13:08.585Z,26.43
2022-12-20T22:15:34.826Z,28.03
2022-12-20T22:18:01.128Z,27.47
2022-12-20T22:20:27.351Z,27.40
2022-12-20T22:22:53.906Z,26.03
2022-12-20T22:25:20.131Z,27.17
2022-12-20T22:27:46.395Z,25.70
2022-12-20T22:30:12.694Z,25.43
2022-12-20T22:32:38.968Z,24.43
2022-12-20T22:35:05.441Z,28.07
2022-12-20T22:37:31.716Z,28.03
2022-12-20T22:39:58.005Z,26.53
2022-12-20T22:42:24.251Z,29.10
2022-12-20T22:44:50.605Z,24.27
2022-12-20T22:47:16.827Z,25.23
2022-12-20T22:49:43.075Z,27.40
2022-12-20T22:52:09.590Z,28.20
2022-12-20T22:54:35.904Z,26.87
2022-12-20T22:57:02.222Z,27.50
2022-12-20T22:59:28.510Z,27.33
2022-12-20T23:01:54.907Z,25.73
2022-12-20T23:04:21.258Z,23.57
2022-12-20T23:06:47.563Z,23.80
2022-12-20T23:09:13.793Z,27.13
2022-12-20T23:11:58.768Z,23.57
2022-12-20T23:14:43.592Z,29.73
2022-12-20T23:17:10.355Z,28.60
2022-12-20T23:19:55.300Z,24.53
2022-12-20T23:22:37.685Z,27.80
2022-12-20T23:25:04.770Z,24.93
2022-12-20T23:27:31.007Z,28.17
2022-12-20T23:29:57.349Z,27.57
2022-12-20T23:32:24.164Z,25.10
2022-12-20T23:34:50.664Z,29.73
2022-12-20T23:37:16.936Z,27.07
2022-12-20T23:39:43.182Z,24.00
2022-12-20T23:42:09.401Z,26.03
2022-12-20T23:44:35.637Z,25.90
2022-12-20T23:47:01.851Z,27.77
2022-12-20T23:49:28.214Z,26.27
2022-12-20T23:51:54.480Z,27.10
2022-12-20T23:54:21.500Z,24.60
2022-12-20T23:56:48.224Z,25.87
2022-12-20T23:59:14.740Z,26.30
